Time;durP1;ratioP1;P1;durP2;ratioP2;P2;SDS_P1;SDS_P2;PMS_P1;PMS_P2;Temp;Humidity;BMP_temperature;BMP_pressure;BME280_temperature;BME280_humidity;BME280_pressure;Samples;Min_cycle;Max_cycle;Signal;HPM_P1;HPM_P2
2022/12/16 00:01:13;;;;;;;45.67;27.55;;;;;;;;;;4958811;29;20064;-78
2022/12/16 00:03:40;;;;;;;45.83;28.02;;;;;;;;;;4930760;29;20055;-78
2022/12/16 00:06:08;;;;;;;52.17;27.77;;;;;;;;;;4937564;29;20090;-78
2022/12/16 00:08:36;;;;;;;48.22;26.90;;;;;;;;;;4936651;29;20065;-78
2022/12/16 00:11:04;;;;;;;45.60;27.63;;;;;;;;;;4937726;29;20457;-77
2022/12/16 00:13:31;;;;;;;48.72;27.42;;;;;;;;;;4920323;29;20686;-77
2022/12/16 00:15:59;;;;;;;51.72;29.05;;;;;;;;;;4902883;29;20059;-77
2022/12/16 00:18:26;;;;;;;47.58;27.90;;;;;;;;;;4900972;29;20401;-77
2022/12/16 00:20:54;;;;;;;49.72;28.83;;;;;;;;;;4900429;29;20084;-77
2022/12/16 00:23:21;;;;;;;46.78;27.08;;;;;;;;;;4923365;29;20059;-77
2022/12/16 00:25:48;;;;;;;49.80;28.20;;;;;;;;;;4935964;29;20429;-77
2022/12/16 00:28:17;;;;;;;46.58;28.38;;;;;;;;;;4934727;29;20143;-77
2022/12/16 00:30:44;;;;;;;50.47;28.27;;;;;;;;;;4936748;29;20091;-78
2022/12/16 00:33:11;;;;;;;46.67;27.42;;;;;;;;;;4919290;29;20056;-77
2022/12/16 00:35:38;;;;;;;52.92;27.75;;;;;;;;;;4940667;29;20059;-77
2022/12/16 00:38:11;;;;;;;53.00;29.13;;;;;;;;;;4946438;28;20060;-77
2022/12/16 00:40:38;;;;;;;50.53;27.70;;;;;;;;;;4947943;29;20051;-77
2022/12/16 00:43:05;;;;;;;49.88;26.90;;;;;;;;;;4916329;29;20080;-77
2022/12/16 00:45:31;;;;;;;57.03;29.83;;;;;;;;;;4931796;29;20055;-77
2022/12/16 00:47:58;;;;;;;50.80;28.13;;;;;;;;;;4950258;28;20079;-77
2022/12/16 00:50:25;;;;;;;55.20;29.48;;;;;;;;;;4935343;29;20096;-77
2022/12/16 00:52:52;;;;;;;50.13;27.48;;;;;;;;;;4934547;29;20047;-76
2022/12/16 00:55:20;;;;;;;47.72;27.85;;;;;;;;;;4950844;29;20435;-76
2022/12/16 00:57:47;;;;;;;50.70;28.92;;;;;;;;;;4935384;29;20685;-77
2022/12/16 01:00:15;;;;;;;47.30;28.05;;;;;;;;;;4931965;29;20055;-77
2022/12/16 01:02:43;;;;;;;51.72;28.38;;;;;;;;;;4931713;29;20052;-77
2022/12/16 01:05:11;;;;;;;53.50;29.63;;;;;;;;;;4932234;29;20436;-77
2022/12/16 01:07:38;;;;;;;52.35;29.80;;;;;;;;;;4947702;28;20056;-76
2022/12/16 01:10:06;;;;;;;49.13;28.48;;;;;;;;;;4947762;29;20067;-75
2022/12/16 01:12:34;;;;;;;50.25;28.30;;;;;;;;;;4932609;29;20055;-76
2022/12/16 01:15:02;;;;;;;56.63;31.10;;;;;;;;;;4934918;29;20055;-76
2022/12/16 01:17:28;;;;;;;52.22;28.10;;;;;;;;;;4923388;28;20059;-78
2022/12/16 01:19:55;;;;;;;49.22;28.30;;;;;;;;;;4946735;29;20054;-78
2022/12/16 01:22:22;;;;;;;52.67;28.83;;;;;;;;;;4945579;29;20047;-78
2022/12/16 01:24:49;;;;;;;48.25;27.17;;;;;;;;;;4955708;29;20055;-80
2022/12/16 01:27:15;;;;;;;50.70;27.55;;;;;;;;;;4955698;29;20110;-80
2022/12/16 01:29:42;;;;;;;52.65;28.27;;;;;;;;;;4956449;29;20051;-80
2022/12/16 01:32:12;;;;;;;46.30;28.58;;;;;;;;;;4948808;29;20062;-81
2022/12/16 01:34:39;;;;;;;46.78;27.63;;;;;;;;;;4950599;29;20657;-81
2022/12/16 01:37:10;;;;;;;51.55;26.88;;;;;;;;;;4944220;29;20059;-79
2022/12/16 01:39:37;;;;;;;45.70;26.20;;;;;;;;;;4965226;28;20043;-80
2022/12/16 01:42:11;;;;;;;49.17;26.90;;;;;;;;;;4961503;29;20059;-80
2022/12/16 01:44:38;;;;;;;50.60;27.73;;;;;;;;;;4953145;29;20055;-79
2022/12/16 01:47:05;;;;;;;49.35;27.40;;;;;;;;;;4939923;29;20062;-79
2022/12/16 01:49:36;;;;;;;51.40;27.67;;;;;;;;;;4940615;29;20051;-79
2022/12/16 01:52:04;;;;;;;53.78;28.67;;;;;;;;;;4940013;29;20051;-79
2022/12/16 01:54:35;;;;;;;52.83;30.00;;;;;;;;;;4940947;28;20051;-79
2022/12/16 01:57:11;;;;;;;56.45;30.05;;;;;;;;;;4941097;29;20471;-78
2022/12/16 01:59:39;;;;;;;48.05;29.27;;;;;;;;;;4925002;29;20393;-78
2022/12/16 02:02:05;;;;;;;55.78;28.45;;;;;;;;;;4939761;29;20055;-78
2022/12/16 02:04:32;;;;;;;53.75;28.45;;;;;;;;;;4956189;29;20059;-79
2022/12/16 02:06:59;;;;;;;50.97;29.52;;;;;;;;;;4956176;28;20534;-79
2022/12/16 02:09:26;;;;;;;50.38;28.98;;;;;;;;;;4940713;29;20110;-79
2022/12/16 02:12:16;;;;;;;51.80;29.67;;;;;;;;;;4955818;29;20058;-78
2022/12/16 02:14:55;;;;;;;49.30;29.45;;;;;;;;;;4923946;29;20047;-78
2022/12/16 02:17:37;;;;;;;53.90;29.48;;;;;;;;;;4955939;29;20054;-78
2022/12/16 02:20:12;;;;;;;53.38;30.08;;;;;;;;;;4939729;29;20055;-78
2022/12/16 02:23:04;;;;;;;51.38;31.30;;;;;;;;;;4935808;29;20051;-78
2022/12/16 02:25:30;;;;;;;51.70;30.08;;;;;;;;;;4920771;29;20518;-79
2022/12/16 02:28:10;;;;;;;48.08;28.10;;;;;;;;;;4938379;29;20058;-78
2022/12/16 02:30:55;;;;;;;46.42;27.73;;;;;;;;;;4943991;29;20062;-78
2022/12/16 02:33:26;;;;;;;51.55;27.95;;;;;;;;;;4954639;28;20055;-77
2022/12/16 02:35:58;;;;;;;51.70;28.15;;;;;;;;;;4954034;28;20062;-78
2022/12/16 02:38:32;;;;;;;52.78;29.23;;;;;;;;;;4936793;28;20058;-78
2022/12/16 02:40:59;;;;;;;54.35;30.92;;;;;;;;;;4938257;29;20047;-79
2022/12/16 02:43:34;;;;;;;46.55;27.88;;;;;;;;;;4956905;29;20047;-79
2022/12/16 02:46:02;;;;;;;55.83;28.15;;;;;;;;;;4955572;29;20110;-79
2022/12/16 02:48:29;;;;;;;48.40;28.58;;;;;;;;;;4923537;29;20070;-78
2022/12/16 02:50:56;;;;;;;49.03;29.73;;;;;;;;;;4923095;29;20063;-78
2022/12/16 02:53:22;;;;;;;50.35;28.30;;;;;;;;;;4923302;29;20412;-78
2022/12/16 02:56:19;;;;;;;46.00;27.40;;;;;;;;;;4923391;29;20750;-79
2022/12/16 02:58:52;;;;;;;51.65;28.60;;;;;;;;;;4951135;28;20102;-78
2022/12/16 03:01:32;;;;;;;52.38;28.95;;;;;;;;;;4920547;29;20059;-79
2022/12/16 03:04:08;;;;;;;48.08;26.92;;;;;;;;;;4920655;29;20150;-76
2022/12/16 03:06:35;;;;;;;51.78;28.77;;;;;;;;;;4902869;29;20130;-77
2022/12/16 03:09:04;;;;;;;45.80;26.17;;;;;;;;;;4904292;29;20048;-78
2022/12/16 03:11:31;;;;;;;48.15;28.50;;;;;;;;;;4905059;29;20060;-78
2022/12/16 03:13:57;;;;;;;50.97;29.73;;;;;;;;;;4935372;29;20052;-78
2022/12/16 03:16:29;;;;;;;48.40;28.98;;;;;;;;;;4904450;29;20056;-78
2022/12/16 03:19:02;;;;;;;51.77;28.53;;;;;;;;;;4907488;29;20062;-79
2022/12/16 03:21:31;;;;;;;48.10;29.13;;;;;;;;;;4935776;29;20295;-78
2022/12/16 03:24:05;;;;;;;45.92;27.35;;;;;;;;;;4924744;29;20287;-79
2022/12/16 03:26:34;;;;;;;47.90;28.45;;;;;;;;;;4941015;28;20094;-79
2022/12/16 03:29:05;;;;;;;48.90;28.70;;;;;;;;;;4928861;29;20051;-79
2022/12/16 03:31:39;;;;;;;48.30;27.75;;;;;;;;;;4934784;29;20060;-80
2022/12/16 03:34:33;;;;;;;51.47;28.33;;;;;;;;;;4950246;29;20113;-81
2022/12/16 03:37:07;;;;;;;47.28;26.48;;;;;;;;;;4957520;28;20062;-80
2022/12/16 03:39:35;;;;;;;50.45;27.13;;;;;;;;;;4945143;29;20051;-81
2022/12/16 03:42:03;;;;;;;47.13;26.67;;;;;;;;;;4941515;29;20055;-81
2022/12/16 03:44:31;;;;;;;44.15;26.45;;;;;;;;;;4940458;29;20512;-82
2022/12/16 03:46:57;;;;;;;45.35;25.95;;;;;;;;;;4926188;29;20051;-82
2022/12/16 03:49:25;;;;;;;44.92;26.33;;;;;;;;;;4940964;29;20133;-81
2022/12/16 03:51:53;;;;;;;39.30;25.52;;;;;;;;;;4931497;28;20054;-82
2022/12/16 03:54:20;;;;;;;44.08;26.10;;;;;;;;;;4957953;29;20051;-80
2022/12/16 03:56:47;;;;;;;42.22;24.30;;;;;;;;;;4945655;29;20080;-79
2022/12/16 03:59:14;;;;;;;41.35;24.88;;;;;;;;;;4946392;29;20595;-77
2022/12/16 04:01:40;;;;;;;41.53;24.52;;;;;;;;;;4945421;28;20055;-79
2022/12/16 04:04:07;;;;;;;39.20;24.27;;;;;;;;;;4947532;29;20054;-78
2022/12/16 04:06:34;;;;;;;40.72;23.23;;;;;;;;;;4962726;28;20125;-78
2022/12/16 04:09:01;;;;;;;39.92;22.95;;;;;;;;;;4927112;29;20062;-78
2022/12/16 04:25:33;;;;;;;39.80;22.92;;;;;;;;;;4950258;29;20054;-78
2022/12/16 04:28:00;;;;;;;38.45;22.85;;;;;;;;;;4949453;28;20055;-78
2022/12/16 04:30:28;;;;;;;39.63;23.58;;;;;;;;;;4981907;28;20054;-77
